CheckWX is a tool to help pilots better visualize weather data.  It is not intended as a substitute for an official pre-flight weather briefing.

14:04:47 UTC

TLPL TAF
Hewanorra International Airport
Vieux Fort, Saint Lucia
TAF TLPL 261100Z 2612/2712 07010KT 9999 SCT027 BECMG 2618/2620 11010KT

Jan-26@
12:00 UTC

Jan-26 @ 12:00 UTC

Jan-26@
18:00 UTC

Jan-26 @ 18:00 UTC

TAF TLPL 261100Z 2612/2712 07010KT 9999 SCT027
Wind
  • 070° at 10 KTS
Cloud Levels
  • Scattered at 2,700' AGL

Jan-26@
18:00 UTC

Jan-26 @ 18:00 UTC

Jan-27@
12:00 UTC

Jan-27 @ 12:00 UTC

BECMG 2618/2620 11010KT

Becoming

Becoming Conditions expected by Sun, Jan 26, 2020 @ 20:00 UTC

Wind
  • 110° at 10 KTS
Cloud Levels
  • Scattered at 2,700' AGL